createdAt,value
2019-01-03T00:01:59.755Z,60.40
2019-01-03T00:04:52.983Z,60.47
2019-01-03T00:07:40.734Z,61.42
2019-01-03T00:10:41.992Z,62.04
2019-01-03T00:13:30.931Z,60.89
2019-01-03T00:16:23.863Z,61.44
2019-01-03T00:19:04.777Z,62.47
2019-01-03T00:21:58.251Z,61.02
2019-01-03T00:24:45.753Z,61.05
2019-01-03T00:27:43.500Z,60.51
2019-01-03T00:30:31.169Z,60.00
2019-01-03T00:33:13.851Z,61.04
2019-01-03T00:36:10.120Z,61.62
2019-01-03T00:38:52.499Z,61.15
2019-01-03T00:41:46.487Z,61.40
2019-01-03T00:44:47.620Z,61.74
2019-01-03T00:47:33.637Z,61.61
2019-01-03T00:50:22.532Z,59.99
2019-01-03T00:53:10.439Z,60.61
2019-01-03T00:55:59.252Z,60.46
2019-01-03T00:58:43.148Z,60.98
2019-01-03T01:01:30.765Z,60.44
2019-01-03T01:04:18.555Z,61.18
2019-01-03T01:07:03.640Z,60.79
2019-01-03T01:09:46.618Z,61.99
2019-01-03T01:12:35.515Z,62.05
2019-01-03T01:15:23.689Z,62.51
2019-01-03T01:18:15.667Z,62.72
2019-01-03T01:21:03.459Z,62.80
2019-01-03T01:24:04.379Z,61.99
2019-01-03T01:26:51.220Z,62.48
2019-01-03T01:29:37.362Z,62.03
2019-01-03T01:32:18.778Z,61.59
2019-01-03T01:35:15.306Z,62.47
2019-01-03T01:38:03.041Z,61.62
2019-01-03T01:40:50.460Z,61.99
2019-01-03T01:43:48.553Z,61.57
2019-01-03T01:46:49.574Z,61.01
2019-01-03T01:49:38.447Z,62.39
2019-01-03T01:52:26.540Z,61.82
2019-01-03T01:55:13.507Z,62.22
2019-01-03T01:58:08.503Z,62.23
2019-01-03T02:01:00.589Z,62.71
2019-01-03T02:03:41.273Z,62.98
2019-01-03T02:06:26.491Z,62.86
2019-01-03T02:09:14.265Z,63.65
2019-01-03T02:12:15.569Z,63.15
2019-01-03T02:15:06.021Z,63.01
2019-01-03T02:18:06.112Z,62.61
2019-01-03T02:21:01.086Z,62.03
2019-01-03T02:23:49.973Z,62.93
2019-01-03T02:26:32.853Z,62.49
2019-01-03T02:29:23.123Z,61.86
2019-01-03T02:32:24.319Z,62.92
2019-01-03T02:35:28.257Z,63.11
2019-01-03T02:38:26.314Z,63.13
2019-01-03T02:41:21.214Z,62.75
2019-01-03T02:44:19.316Z,63.44
2019-01-03T02:47:06.807Z,63.31
2019-01-03T02:49:53.040Z,62.55
2019-01-03T02:52:57.264Z,61.44
2019-01-03T02:55:48.179Z,62.00
2019-01-03T02:58:35.869Z,61.88
2019-01-03T03:01:40.007Z,62.23
2019-01-03T03:04:30.133Z,61.72
2019-01-03T03:07:20.708Z,62.81
2019-01-03T03:10:10.514Z,63.49
2019-01-03T03:13:08.178Z,64.35
2019-01-03T03:15:59.870Z,63.14
2019-01-03T03:18:51.566Z,62.07
2019-01-03T03:21:35.042Z,63.30
2019-01-03T03:24:19.014Z,62.67
2019-01-03T03:27:16.915Z,62.04
2019-01-03T03:30:04.622Z,62.60
2019-01-03T03:32:55.795Z,62.40
2019-01-03T03:35:44.551Z,63.18
2019-01-03T03:38:36.398Z,61.63
2019-01-03T03:41:40.452Z,62.77
2019-01-03T03:44:27.933Z,62.89
2019-01-03T03:47:06.769Z,63.97
2019-01-03T03:49:54.338Z,63.69
2019-01-03T03:52:37.218Z,62.19
2019-01-03T03:55:24.835Z,63.15
2019-01-03T03:58:12.404Z,62.88
2019-01-03T04:01:00.219Z,63.74
2019-01-03T04:03:47.944Z,64.28
2019-01-03T04:06:35.528Z,64.10
2019-01-03T04:09:27.886Z,63.48
2019-01-03T04:12:16.780Z,64.83
2019-01-03T04:15:12.931Z,65.19
2019-01-03T04:17:57.630Z,62.59
2019-01-03T04:20:49.271Z,63.63
2019-01-03T04:23:53.567Z,62.75
2019-01-03T04:26:42.377Z,61.99
2019-01-03T04:29:43.491Z,63.34
2019-01-03T04:32:31.190Z,63.25
2019-01-03T04:35:14.422Z,62.93
2019-01-03T04:38:02.055Z,64.33
2019-01-03T04:40:49.585Z,63.05
2019-01-03T04:43:38.458Z,64.39
2019-01-03T04:46:39.689Z,64.67
2019-01-03T04:49:27.911Z,64.09
2019-01-03T04:52:34.926Z,65.97
2019-01-03T04:55:22.620Z,64.55
2019-01-03T04:58:20.673Z,63.76
2019-01-03T05:01:12.725Z,64.69
2019-01-03T05:04:02.281Z,63.80
2019-01-03T05:06:47.842Z,65.22
2019-01-03T05:09:36.667Z,65.42
2019-01-03T05:12:31.442Z,64.60
2019-01-03T05:15:18.883Z,64.85
2019-01-03T05:18:06.609Z,62.12
2019-01-03T05:20:47.901Z,64.49
2019-01-03T05:23:48.690Z,63.66
2019-01-03T05:26:33.188Z,63.49
2019-01-03T05:29:20.808Z,63.96
2019-01-03T05:32:08.901Z,63.03
2019-01-03T05:34:57.754Z,62.90
2019-01-03T05:37:52.478Z,63.37
2019-01-03T05:40:44.190Z,64.29
2019-01-03T05:43:25.728Z,65.46
2019-01-03T05:46:20.644Z,63.95
2019-01-03T05:49:03.235Z,62.69
2019-01-03T05:51:59.437Z,63.42
2019-01-03T05:54:50.989Z,63.46
2019-01-03T05:57:42.906Z,64.38
2019-01-03T06:00:44.892Z,64.46
2019-01-03T06:03:25.589Z,63.87
2019-01-03T06:06:32.863Z,62.92
2019-01-03T06:09:27.823Z,63.16
2019-01-03T06:12:29.093Z,62.12
2019-01-03T06:15:17.957Z,61.21
2019-01-03T06:18:05.847Z,62.04
2019-01-03T06:21:00.864Z,61.30
2019-01-03T06:24:04.850Z,61.51
2019-01-03T06:26:52.579Z,63.20
2019-01-03T06:29:41.406Z,62.85
2019-01-03T06:32:29.206Z,61.18
2019-01-03T06:35:16.722Z,61.90
2019-01-03T06:38:04.723Z,61.60
2019-01-03T06:40:59.697Z,61.97
2019-01-03T06:43:46.236Z,61.91
2019-01-03T06:46:33.819Z,62.57
2019-01-03T06:49:29.084Z,61.11
2019-01-03T06:52:23.521Z,61.06
2019-01-03T06:55:11.485Z,61.70
2019-01-03T06:57:59.004Z,62.69
2019-01-03T07:01:06.038Z,62.70
2019-01-03T07:04:13.393Z,61.47
2019-01-03T07:07:01.237Z,61.50
2019-01-03T07:09:53.387Z,60.35
2019-01-03T07:12:54.433Z,60.95
2019-01-03T07:15:43.317Z,61.44
2019-01-03T07:18:31.233Z,62.39
2019-01-03T07:21:28.222Z,63.59
2019-01-03T07:24:20.232Z,61.28
2019-01-03T07:27:09.080Z,62.11
2019-01-03T07:29:58.022Z,61.50
2019-01-03T07:32:46.865Z,61.48
2019-01-03T07:35:34.710Z,61.98
2019-01-03T07:38:18.191Z,63.01
2019-01-03T07:41:05.882Z,62.25
2019-01-03T07:43:45.973Z,63.00
2019-01-03T07:46:38.010Z,62.01
2019-01-03T07:49:25.793Z,63.09
2019-01-03T07:52:13.754Z,62.44
2019-01-03T07:55:05.508Z,61.10
2019-01-03T07:57:57.268Z,62.06
2019-01-03T08:00:45.099Z,61.77
2019-01-03T08:03:32.682Z,63.23
2019-01-03T08:06:21.578Z,62.83
2019-01-03T08:09:16.606Z,61.57
2019-01-03T08:12:11.384Z,60.91
2019-01-03T08:14:55.844Z,61.97
2019-01-03T08:17:57.144Z,61.82
2019-01-03T08:20:44.932Z,61.99
2019-01-03T08:23:41.151Z,60.81
2019-01-03T08:26:29.071Z,60.60
2019-01-03T08:29:16.532Z,61.46
2019-01-03T08:32:08.333Z,61.04
2019-01-03T08:35:03.462Z,61.55
2019-01-03T08:38:09.948Z,61.00
2019-01-03T08:41:01.742Z,61.16
2019-01-03T08:44:08.325Z,62.35
2019-01-03T08:46:56.511Z,61.03
2019-01-03T08:49:43.329Z,60.46
2019-01-03T08:52:31.143Z,61.75
2019-01-03T08:55:32.299Z,56.82
2019-01-03T08:58:12.171Z,56.22
2019-01-03T09:00:59.941Z,55.08
2019-01-03T09:03:48.662Z,57.88
2019-01-03T09:06:36.483Z,57.00
2019-01-03T09:09:29.177Z,53.78
2019-01-03T09:12:30.014Z,56.45
2019-01-03T09:15:31.132Z,54.49
2019-01-03T09:18:20.124Z,57.54
2019-01-03T09:21:27.567Z,55.13
2019-01-03T09:24:22.376Z,55.40
2019-01-03T09:27:12.399Z,55.43
2019-01-03T09:29:56.981Z,53.70
2019-01-03T09:32:44.605Z,52.64
2019-01-03T09:35:36.738Z,54.29
2019-01-03T09:38:25.649Z,58.45
2019-01-03T09:41:15.507Z,57.40
2019-01-03T09:44:03.363Z,59.31
2019-01-03T09:46:33.244Z,60.42
2019-01-03T09:49:03.123Z,60.64
2019-01-03T09:51:33.152Z,60.84
2019-01-03T09:54:02.988Z,60.92
2019-01-03T09:56:32.862Z,61.43
2019-01-03T09:59:02.781Z,61.05
2019-01-03T10:01:32.731Z,59.90
2019-01-03T10:04:02.632Z,61.15
2019-01-03T10:06:32.568Z,60.71
2019-01-03T10:09:02.586Z,60.04
2019-01-03T10:11:32.808Z,60.21
2019-01-03T10:14:02.784Z,60.15
2019-01-03T10:16:32.738Z,60.81
2019-01-03T10:19:02.734Z,60.35
2019-01-03T10:21:32.703Z,59.75
2019-01-03T10:24:02.568Z,58.59
2019-01-03T10:26:32.616Z,59.74
2019-01-03T10:29:02.560Z,60.16
2019-01-03T10:31:32.597Z,58.52
2019-01-03T10:34:02.744Z,58.50
2019-01-03T10:36:32.655Z,58.66
2019-01-03T10:39:04.007Z,57.86
2019-01-03T10:41:33.915Z,57.25
2019-01-03T10:44:04.126Z,56.87
2019-01-03T10:46:34.079Z,56.19
2019-01-03T10:49:04.050Z,56.52
2019-01-03T10:51:34.135Z,56.88
2019-01-03T10:54:04.019Z,56.29
2019-01-03T10:56:33.951Z,56.19
2019-01-03T10:59:03.869Z,55.68
2019-01-03T11:01:33.740Z,55.97
2019-01-03T11:04:03.592Z,55.84
2019-01-03T11:06:33.541Z,56.76
2019-01-03T11:09:03.921Z,55.39
2019-01-03T11:11:33.740Z,57.42
2019-01-03T11:14:03.670Z,58.09
2019-01-03T11:16:33.602Z,57.86
2019-01-03T11:19:03.623Z,57.86
2019-01-03T11:21:33.513Z,58.50
2019-01-03T11:24:03.685Z,57.87
2019-01-03T11:26:33.517Z,55.84
2019-01-03T11:29:03.534Z,57.82
2019-01-03T11:31:33.405Z,58.44
2019-01-03T11:34:03.225Z,58.09
2019-01-03T11:36:33.165Z,58.37
2019-01-03T11:39:04.376Z,58.61
2019-01-03T11:41:34.288Z,58.65
2019-01-03T11:44:04.207Z,57.92
2019-01-03T11:46:34.245Z,58.01
2019-01-03T11:49:04.252Z,57.56
2019-01-03T11:51:34.125Z,56.81
2019-01-03T11:54:04.025Z,58.14
2019-01-03T11:56:33.898Z,57.46
2019-01-03T11:59:03.815Z,57.59
2019-01-03T12:01:33.809Z,57.44
2019-01-03T12:04:05.049Z,57.06
2019-01-03T12:06:35.034Z,57.00
2019-01-03T12:09:06.732Z,57.90
2019-01-03T12:11:36.853Z,57.84
2019-01-03T12:14:06.757Z,56.40
2019-01-03T12:16:36.694Z,56.76
2019-01-03T12:19:06.690Z,57.58
2019-01-03T12:21:36.535Z,56.86
2019-01-03T12:24:06.493Z,56.98
2019-01-03T12:26:36.604Z,57.03
2019-01-03T12:29:07.672Z,56.45
2019-01-03T12:31:37.607Z,57.79
2019-01-03T12:34:07.508Z,57.79
2019-01-03T12:36:37.476Z,57.61
2019-01-03T12:39:07.976Z,58.18
2019-01-03T12:41:37.864Z,57.21
2019-01-03T12:44:07.788Z,57.74
2019-01-03T12:46:37.750Z,57.79
2019-01-03T12:49:07.663Z,58.08
2019-01-03T12:51:37.626Z,57.07
2019-01-03T12:54:07.527Z,56.85
2019-01-03T12:56:37.572Z,57.64
2019-01-03T12:59:07.485Z,57.69
2019-01-03T13:01:37.487Z,57.62
2019-01-03T13:04:07.515Z,55.94
2019-01-03T13:06:37.418Z,56.74
2019-01-03T13:09:15.272Z,56.59
2019-01-03T13:11:45.140Z,57.13
2019-01-03T13:14:15.087Z,56.99
2019-01-03T13:16:45.048Z,56.86
2019-01-03T13:19:14.896Z,57.89
2019-01-03T13:21:44.901Z,57.46
2019-01-03T13:24:15.980Z,58.58
2019-01-03T13:26:45.836Z,58.46
2019-01-03T13:29:15.772Z,58.81
2019-01-03T13:31:45.880Z,58.54
2019-01-03T13:34:16.105Z,58.29
2019-01-03T13:36:47.822Z,58.77
2019-01-03T13:39:17.702Z,58.35
2019-01-03T13:41:48.495Z,58.18
2019-01-03T13:44:18.457Z,58.51
2019-01-03T13:46:48.420Z,56.67
2019-01-03T13:49:18.379Z,56.27
2019-01-03T13:51:48.350Z,57.05
2019-01-03T13:54:18.359Z,57.32
2019-01-03T13:56:48.309Z,57.45
2019-01-03T13:59:18.283Z,57.11
2019-01-03T14:01:48.218Z,57.04
2019-01-03T14:04:18.129Z,57.22
2019-01-03T14:06:48.134Z,57.39
2019-01-03T14:09:18.239Z,56.53
2019-01-03T14:11:48.271Z,56.98
2019-01-03T14:14:18.198Z,57.02
2019-01-03T14:16:48.124Z,56.70
2019-01-03T14:19:18.047Z,56.74
2019-01-03T14:21:48.132Z,56.35
2019-01-03T14:24:18.086Z,57.17
2019-01-03T14:26:48.068Z,56.59
2019-01-03T14:29:20.775Z,57.41
2019-01-03T14:31:50.668Z,57.37
2019-01-03T14:34:20.496Z,57.25
2019-01-03T14:36:50.347Z,56.95
2019-01-03T14:39:20.215Z,57.60
2019-01-03T14:41:50.114Z,57.51
2019-01-03T14:44:19.981Z,57.94
2019-01-03T14:46:49.933Z,58.02
2019-01-03T14:49:19.903Z,57.40
2019-01-03T14:51:49.907Z,56.06
2019-01-03T14:54:19.792Z,56.32
2019-01-03T14:56:49.688Z,56.68
2019-01-03T14:59:19.546Z,57.95
2019-01-03T15:01:49.756Z,56.46
2019-01-03T15:04:19.824Z,57.16
2019-01-03T15:06:49.667Z,57.32
2019-01-03T15:12:22.637Z,58.02
2019-01-03T15:14:53.847Z,58.24
2019-01-03T15:17:23.819Z,58.75
2019-01-03T15:19:53.889Z,58.63
2019-01-03T15:22:23.815Z,58.96
2019-01-03T15:24:53.734Z,59.62
2019-01-03T15:27:23.623Z,59.87
2019-01-03T15:29:53.639Z,60.17
2019-01-03T15:32:23.468Z,60.29
2019-01-03T15:34:53.417Z,61.15
2019-01-03T15:37:23.270Z,60.92
2019-01-03T15:39:53.125Z,61.43
2019-01-03T15:42:23.032Z,61.32
2019-01-03T15:44:52.918Z,61.92
2019-01-03T15:47:22.819Z,61.62
2019-01-03T15:49:52.726Z,61.97
2019-01-03T15:52:22.536Z,61.56
2019-01-03T15:54:52.424Z,62.16
2019-01-03T15:57:22.261Z,62.60
2019-01-03T15:59:52.153Z,63.07
2019-01-03T16:02:22.046Z,63.47
2019-01-03T16:04:51.878Z,63.99
2019-01-03T16:07:21.963Z,64.51
2019-01-03T16:09:51.965Z,64.17
2019-01-03T16:12:21.891Z,65.04
2019-01-03T16:14:51.727Z,65.14
2019-01-03T16:17:21.686Z,65.06
2019-01-03T16:19:51.584Z,64.72
2019-01-03T16:22:21.444Z,65.66
2019-01-03T16:24:51.275Z,65.15
2019-01-03T16:27:21.287Z,65.61
2019-01-03T16:29:51.542Z,65.87
2019-01-03T16:32:21.504Z,63.93
2019-01-03T16:34:51.420Z,63.33
2019-01-03T16:37:21.265Z,64.26
2019-01-03T16:39:51.213Z,63.65
2019-01-03T16:42:21.135Z,63.19
2019-01-03T16:44:50.994Z,64.15
2019-01-03T16:47:20.881Z,63.31
2019-01-03T16:49:50.834Z,62.86
2019-01-03T16:52:20.773Z,63.27
2019-01-03T16:54:50.721Z,63.75
2019-01-03T16:57:20.540Z,62.98
2019-01-03T16:59:50.433Z,63.69
2019-01-03T17:02:20.328Z,63.76
2019-01-03T17:04:50.348Z,64.18
2019-01-03T17:07:20.292Z,63.75
2019-01-03T17:09:50.265Z,63.19
2019-01-03T17:12:20.205Z,64.07
2019-01-03T17:14:50.166Z,64.25
2019-01-03T17:17:20.171Z,64.93
2019-01-03T17:19:50.110Z,64.61
2019-01-03T17:22:20.203Z,64.14
2019-01-03T17:24:50.198Z,65.32
2019-01-03T17:27:20.333Z,65.76
2019-01-03T17:29:50.294Z,64.96
2019-01-03T17:32:20.311Z,65.28
2019-01-03T17:34:50.185Z,65.59
2019-01-03T17:37:20.037Z,64.06
2019-01-03T17:39:49.973Z,64.41
2019-01-03T17:42:19.965Z,64.68
2019-01-03T17:44:49.962Z,64.40
2019-01-03T17:47:19.849Z,64.93
2019-01-03T17:49:49.852Z,65.51
2019-01-03T17:52:19.746Z,65.26
2019-01-03T17:54:49.690Z,66.04
2019-01-03T17:57:19.585Z,66.19
2019-01-03T17:59:49.457Z,65.94
2019-01-03T18:02:19.282Z,66.15
2019-01-03T18:04:49.163Z,65.97
2019-01-03T18:07:19.070Z,65.80
2019-01-03T18:09:49.131Z,66.16
2019-01-03T18:12:19.133Z,66.33
2019-01-03T18:14:49.139Z,66.54
2019-01-03T18:17:19.208Z,66.75
2019-01-03T18:19:49.072Z,67.52
2019-01-03T18:22:19.211Z,67.91
2019-01-03T18:24:49.246Z,67.36
2019-01-03T18:27:19.217Z,67.69
2019-01-03T18:29:49.547Z,66.75
2019-01-03T18:32:19.534Z,66.63
2019-01-03T18:34:50.620Z,67.44
2019-01-03T18:37:20.506Z,67.03
2019-01-03T18:39:50.327Z,67.27
2019-01-03T18:42:20.314Z,67.04
2019-01-03T18:44:51.182Z,67.15
2019-01-03T18:47:21.262Z,67.52
2019-01-03T18:49:51.299Z,68.12
2019-01-03T18:52:21.234Z,68.23
2019-01-03T18:54:51.159Z,67.41
2019-01-03T18:57:21.100Z,68.11
2019-01-03T18:59:51.082Z,68.20
2019-01-03T19:02:21.064Z,68.49
2019-01-03T19:04:51.053Z,67.16
2019-01-03T19:07:21.017Z,67.51
2019-01-03T19:09:50.878Z,67.75
2019-01-03T19:12:21.046Z,67.85
2019-01-03T19:14:51.176Z,67.11
2019-01-03T19:17:21.064Z,67.52
2019-01-03T19:19:51.885Z,67.09
2019-01-03T19:22:21.714Z,67.25
2019-01-03T19:24:51.586Z,68.02
2019-01-03T19:27:21.735Z,68.38
2019-01-03T19:29:51.739Z,69.15
2019-01-03T19:32:21.741Z,69.33
2019-01-03T19:34:51.652Z,68.77
2019-01-03T19:37:21.622Z,68.92
2019-01-03T19:39:51.443Z,69.47
2019-01-03T19:42:21.316Z,69.29
2019-01-03T19:44:51.301Z,69.03
2019-01-03T19:47:21.429Z,69.42
2019-01-03T19:49:51.299Z,69.83
2019-01-03T19:52:21.558Z,69.55
2019-01-03T19:54:51.465Z,69.34
2019-01-03T19:57:21.307Z,69.46
2019-01-03T19:59:51.292Z,69.55
2019-01-03T20:02:22.270Z,69.71
2019-01-03T20:04:52.264Z,69.19
2019-01-03T20:07:22.613Z,69.44
2019-01-03T20:09:52.591Z,69.91
2019-01-03T20:12:22.707Z,70.00
2019-01-03T20:14:52.637Z,69.40
2019-01-03T20:17:22.550Z,68.98
2019-01-03T20:19:52.467Z,69.23
2019-01-03T20:22:22.321Z,68.14
2019-01-03T20:24:52.161Z,68.41
2019-01-03T20:27:22.064Z,67.98
2019-01-03T20:29:52.064Z,68.46
2019-01-03T20:32:22.085Z,69.99
2019-01-03T20:34:52.055Z,68.81
2019-01-03T20:37:21.942Z,70.25
2019-01-03T20:39:51.899Z,70.19
2019-01-03T20:42:21.843Z,69.98
2019-01-03T20:44:51.889Z,70.71
2019-01-03T20:47:21.772Z,70.30
2019-01-03T20:49:51.601Z,70.50
2019-01-03T20:52:21.466Z,70.93
2019-01-03T20:54:51.414Z,70.62
2019-01-03T20:57:21.310Z,69.86
2019-01-03T20:59:51.179Z,70.47
2019-01-03T21:02:21.075Z,70.64
2019-01-03T21:04:51.015Z,70.18
2019-01-03T21:07:20.919Z,71.20
2019-01-03T21:09:50.794Z,70.89
2019-01-03T21:12:20.755Z,71.66
2019-01-03T21:14:50.711Z,71.78
2019-01-03T21:17:20.632Z,71.72
2019-01-03T21:19:50.563Z,71.14
2019-01-03T21:22:20.520Z,71.43
2019-01-03T21:24:50.452Z,71.44
2019-01-03T21:27:20.352Z,71.41
2019-01-03T21:29:50.237Z,71.42
2019-01-03T21:32:20.253Z,71.12
2019-01-03T21:34:50.197Z,71.57
2019-01-03T21:37:20.060Z,72.83
2019-01-03T21:39:49.938Z,71.03
2019-01-03T21:42:19.875Z,71.15
2019-01-03T21:44:49.781Z,72.53
2019-01-03T21:47:19.821Z,72.77
2019-01-03T21:49:49.736Z,72.44
2019-01-03T21:52:19.744Z,73.03
2019-01-03T21:54:49.578Z,72.40
2019-01-03T21:57:19.581Z,72.60
2019-01-03T21:59:49.501Z,72.16
2019-01-03T22:02:19.369Z,72.02
2019-01-03T22:04:49.270Z,72.79
2019-01-03T22:07:19.306Z,71.75
2019-01-03T22:09:49.177Z,71.96
2019-01-03T22:12:19.159Z,72.38
2019-01-03T22:14:49.151Z,71.52
2019-01-03T22:17:19.092Z,72.33
2019-01-03T22:19:49.050Z,72.90
2019-01-03T22:22:18.881Z,72.74
2019-01-03T22:24:48.892Z,71.54
2019-01-03T22:27:18.721Z,71.67
2019-01-03T22:29:48.585Z,71.85
2019-01-03T22:32:18.576Z,71.98
2019-01-03T22:34:48.461Z,72.35
2019-01-03T22:37:18.366Z,71.94
2019-01-03T22:39:48.253Z,73.05
2019-01-03T22:42:18.138Z,72.53
2019-01-03T22:44:48.013Z,72.74
2019-01-03T22:47:17.875Z,72.75
2019-01-03T22:49:47.794Z,73.20
2019-01-03T22:52:17.739Z,72.41
2019-01-03T22:54:47.602Z,73.67
2019-01-03T22:57:17.564Z,72.97
2019-01-03T22:59:47.516Z,72.94
2019-01-03T23:02:17.458Z,73.78
2019-01-03T23:04:49.220Z,73.21
2019-01-03T23:07:19.381Z,73.73
2019-01-03T23:09:49.216Z,72.73
2019-01-03T23:12:19.216Z,73.15
2019-01-03T23:14:49.081Z,73.00
2019-01-03T23:17:18.960Z,73.66
2019-01-03T23:19:48.965Z,70.19
2019-01-03T23:22:18.870Z,64.37
2019-01-03T23:24:48.744Z,64.65
2019-01-03T23:27:18.634Z,61.96
2019-01-03T23:29:48.618Z,64.15
2019-01-03T23:32:18.518Z,64.84
2019-01-03T23:34:48.448Z,66.81
2019-01-03T23:37:18.424Z,67.07
2019-01-03T23:39:48.480Z,69.79
2019-01-03T23:42:18.314Z,67.71
2019-01-03T23:45:16.367Z,71.02
2019-01-03T23:47:46.477Z,69.88
2019-01-03T23:50:19.085Z,70.15
2019-01-03T23:52:48.973Z,70.59
2019-01-03T23:55:19.935Z,69.43
2019-01-03T23:57:50.728Z,70.99
